sensor_id;sensor_type;location;lat;lon;timestamp;P1;durP1;ratioP1;P2;durP2;ratioP2
70165;SDS011;57541;47.408;18.822;2023-03-01T00:00:05;29.05;;;15.32;;
70165;SDS011;57541;47.408;18.822;2023-03-01T00:00:38;26.10;;;14.35;;
70165;SDS011;57541;47.408;18.822;2023-03-01T00:01:11;29.08;;;14.25;;
70165;SDS011;57541;47.408;18.822;2023-03-01T00:01:47;30.08;;;14.98;;
70165;SDS011;57541;47.408;18.822;2023-03-01T00:02:19;27.58;;;14.60;;
70165;SDS011;57541;47.408;18.822;2023-03-01T00:02:51;30.48;;;15.00;;
70165;SDS011;57541;47.408;18.822;2023-03-01T00:03:22;29.15;;;16.50;;
70165;SDS011;57541;47.408;18.822;2023-03-01T00:03:55;29.50;;;14.48;;
70165;SDS011;57541;47.408;18.822;2023-03-01T00:04:27;34.10;;;14.95;;
70165;SDS011;57541;47.408;18.822;2023-03-01T00:04:59;43.17;;;18.15;;
70165;SDS011;57541;47.408;18.822;2023-03-01T00:05:30;50.85;;;20.38;;
70165;SDS011;57541;47.408;18.822;2023-03-01T00:06:03;35.70;;;16.88;;
70165;SDS011;57541;47.408;18.822;2023-03-01T00:06:36;36.10;;;17.15;;
70165;SDS011;57541;47.408;18.822;2023-03-01T00:07:08;36.63;;;16.27;;
70165;SDS011;57541;47.408;18.822;2023-03-01T00:07:40;44.20;;;17.77;;
70165;SDS011;57541;47.408;18.822;2023-03-01T00:08:11;35.75;;;16.85;;
70165;SDS011;57541;47.408;18.822;2023-03-01T00:08:43;30.73;;;15.48;;
70165;SDS011;57541;47.408;18.822;2023-03-01T00:09:15;28.50;;;14.98;;
70165;SDS011;57541;47.408;18.822;2023-03-01T00:09:47;27.42;;;14.85;;
70165;SDS011;57541;47.408;18.822;2023-03-01T00:10:18;27.77;;;14.82;;
70165;SDS011;57541;47.408;18.822;2023-03-01T00:10:59;26.50;;;14.70;;
70165;SDS011;57541;47.408;18.822;2023-03-01T00:11:35;27.10;;;13.95;;
70165;SDS011;57541;47.408;18.822;2023-03-01T00:12:07;26.50;;;14.40;;
70165;SDS011;57541;47.408;18.822;2023-03-01T00:12:39;28.25;;;14.95;;
70165;SDS011;57541;47.408;18.822;2023-03-01T00:13:10;25.85;;;14.55;;
70165;SDS011;57541;47.408;18.822;2023-03-01T00:13:42;25.25;;;14.38;;
70165;SDS011;57541;47.408;18.822;2023-03-01T00:14:15;31.38;;;16.70;;
70165;SDS011;57541;47.408;18.822;2023-03-01T00:14:50;34.08;;;18.05;;
70165;SDS011;57541;47.408;18.822;2023-03-01T00:15:21;32.95;;;17.42;;
70165;SDS011;57541;47.408;18.822;2023-03-01T00:15:53;32.50;;;18.05;;
70165;SDS011;57541;47.408;18.822;2023-03-01T00:16:26;33.83;;;17.92;;
70165;SDS011;57541;47.408;18.822;2023-03-01T00:17:04;32.72;;;16.70;;
70165;SDS011;57541;47.408;18.822;2023-03-01T00:17:36;29.40;;;15.27;;
70165;SDS011;57541;47.408;18.822;2023-03-01T00:18:08;32.58;;;15.88;;
70165;SDS011;57541;47.408;18.822;2023-03-01T00:18:40;31.67;;;15.85;;
70165;SDS011;57541;47.408;18.822;2023-03-01T00:19:13;30.13;;;15.90;;
70165;SDS011;57541;47.408;18.822;2023-03-01T00:19:46;29.73;;;16.15;;
70165;SDS011;57541;47.408;18.822;2023-03-01T00:20:18;25.95;;;14.35;;
70165;SDS011;57541;47.408;18.822;2023-03-01T00:20:50;27.95;;;14.35;;
70165;SDS011;57541;47.408;18.822;2023-03-01T00:21:24;29.02;;;14.65;;
70165;SDS011;57541;47.408;18.822;2023-03-01T00:21:56;28.73;;;15.27;;
70165;SDS011;57541;47.408;18.822;2023-03-01T00:22:28;30.88;;;15.88;;
70165;SDS011;57541;47.408;18.822;2023-03-01T00:22:59;30.70;;;15.55;;
70165;SDS011;57541;47.408;18.822;2023-03-01T00:23:33;30.85;;;14.85;;
70165;SDS011;57541;47.408;18.822;2023-03-01T00:24:06;26.65;;;14.10;;
70165;SDS011;57541;47.408;18.822;2023-03-01T00:24:37;28.45;;;14.30;;
70165;SDS011;57541;47.408;18.822;2023-03-01T00:25:09;28.23;;;14.27;;
70165;SDS011;57541;47.408;18.822;2023-03-01T00:25:41;25.10;;;13.52;;
70165;SDS011;57541;47.408;18.822;2023-03-01T00:26:13;23.13;;;12.63;;
70165;SDS011;57541;47.408;18.822;2023-03-01T00:26:46;27.65;;;13.65;;
70165;SDS011;57541;47.408;18.822;2023-03-01T00:27:18;26.17;;;13.07;;
70165;SDS011;57541;47.408;18.822;2023-03-01T00:27:49;24.90;;;13.10;;
70165;SDS011;57541;47.408;18.822;2023-03-01T00:28:21;24.77;;;13.07;;
70165;SDS011;57541;47.408;18.822;2023-03-01T00:28:53;27.33;;;13.45;;
70165;SDS011;57541;47.408;18.822;2023-03-01T00:29:26;24.55;;;13.07;;
70165;SDS011;57541;47.408;18.822;2023-03-01T00:29:58;23.30;;;13.35;;
70165;SDS011;57541;47.408;18.822;2023-03-01T00:30:30;25.88;;;13.38;;
70165;SDS011;57541;47.408;18.822;2023-03-01T00:31:02;22.75;;;12.35;;
70165;SDS011;57541;47.408;18.822;2023-03-01T00:31:35;24.52;;;12.95;;
70165;SDS011;57541;47.408;18.822;2023-03-01T00:32:07;22.27;;;12.90;;
70165;SDS011;57541;47.408;18.822;2023-03-01T00:32:39;25.00;;;13.60;;
70165;SDS011;57541;47.408;18.822;2023-03-01T00:33:10;25.63;;;12.93;;
70165;SDS011;57541;47.408;18.822;2023-03-01T00:33:42;25.45;;;13.18;;
70165;SDS011;57541;47.408;18.822;2023-03-01T00:34:14;25.10;;;12.80;;
70165;SDS011;57541;47.408;18.822;2023-03-01T00:34:46;26.80;;;14.15;;
70165;SDS011;57541;47.408;18.822;2023-03-01T00:35:25;24.10;;;12.77;;
70165;SDS011;57541;47.408;18.822;2023-03-01T00:36:00;25.90;;;13.85;;
70165;SDS011;57541;47.408;18.822;2023-03-01T00:36:33;27.35;;;14.73;;
70165;SDS011;57541;47.408;18.822;2023-03-01T00:37:06;27.23;;;14.57;;
70165;SDS011;57541;47.408;18.822;2023-03-01T00:37:38;26.35;;;14.30;;
70165;SDS011;57541;47.408;18.822;2023-03-01T00:38:11;22.55;;;12.15;;
70165;SDS011;57541;47.408;18.822;2023-03-01T00:38:44;22.75;;;11.77;;
70165;SDS011;57541;47.408;18.822;2023-03-01T00:39:17;26.38;;;13.77;;
70165;SDS011;57541;47.408;18.822;2023-03-01T00:39:48;24.88;;;13.50;;
70165;SDS011;57541;47.408;18.822;2023-03-01T00:40:20;27.20;;;13.75;;
70165;SDS011;57541;47.408;18.822;2023-03-01T00:40:52;23.15;;;12.77;;
70165;SDS011;57541;47.408;18.822;2023-03-01T00:41:24;25.10;;;13.60;;
70165;SDS011;57541;47.408;18.822;2023-03-01T00:41:58;23.23;;;13.55;;
70165;SDS011;57541;47.408;18.822;2023-03-01T00:42:29;27.40;;;13.00;;
70165;SDS011;57541;47.408;18.822;2023-03-01T00:43:01;24.85;;;13.90;;
70165;SDS011;57541;47.408;18.822;2023-03-01T00:43:33;30.15;;;13.85;;
70165;SDS011;57541;47.408;18.822;2023-03-01T00:44:08;24.17;;;12.82;;
70165;SDS011;57541;47.408;18.822;2023-03-01T00:44:40;24.83;;;13.60;;
70165;SDS011;57541;47.408;18.822;2023-03-01T00:45:11;24.00;;;13.23;;
70165;SDS011;57541;47.408;18.822;2023-03-01T00:45:44;25.40;;;13.20;;
70165;SDS011;57541;47.408;18.822;2023-03-01T00:46:17;25.17;;;13.27;;
70165;SDS011;57541;47.408;18.822;2023-03-01T00:46:50;25.38;;;13.50;;
70165;SDS011;57541;47.408;18.822;2023-03-01T00:47:22;25.38;;;13.63;;
70165;SDS011;57541;47.408;18.822;2023-03-01T00:47:54;26.13;;;13.95;;
70165;SDS011;57541;47.408;18.822;2023-03-01T00:48:25;23.65;;;13.00;;
70165;SDS011;57541;47.408;18.822;2023-03-01T00:48:57;26.05;;;13.95;;
70165;SDS011;57541;47.408;18.822;2023-03-01T00:49:29;30.33;;;15.23;;
70165;SDS011;57541;47.408;18.822;2023-03-01T00:50:01;26.20;;;14.80;;
70165;SDS011;57541;47.408;18.822;2023-03-01T00:50:33;27.30;;;14.98;;
70165;SDS011;57541;47.408;18.822;2023-03-01T00:51:14;27.38;;;15.43;;
70165;SDS011;57541;47.408;18.822;2023-03-01T00:51:51;31.35;;;15.95;;
70165;SDS011;57541;47.408;18.822;2023-03-01T00:52:22;29.65;;;16.10;;
70165;SDS011;57541;47.408;18.822;2023-03-01T00:52:55;27.15;;;15.63;;
70165;SDS011;57541;47.408;18.822;2023-03-01T00:53:27;29.83;;;16.30;;
70165;SDS011;57541;47.408;18.822;2023-03-01T00:53:59;29.10;;;15.23;;
70165;SDS011;57541;47.408;18.822;2023-03-01T00:54:32;26.35;;;15.02;;
70165;SDS011;57541;47.408;18.822;2023-03-01T00:55:04;29.27;;;15.68;;
70165;SDS011;57541;47.408;18.822;2023-03-01T00:55:37;28.88;;;15.35;;
70165;SDS011;57541;47.408;18.822;2023-03-01T00:56:09;28.75;;;14.90;;
70165;SDS011;57541;47.408;18.822;2023-03-01T00:56:42;27.67;;;15.18;;
70165;SDS011;57541;47.408;18.822;2023-03-01T00:57:13;30.05;;;15.57;;
70165;SDS011;57541;47.408;18.822;2023-03-01T00:57:45;27.67;;;14.63;;
70165;SDS011;57541;47.408;18.822;2023-03-01T00:58:17;27.95;;;15.25;;
70165;SDS011;57541;47.408;18.822;2023-03-01T00:58:48;29.23;;;15.27;;
70165;SDS011;57541;47.408;18.822;2023-03-01T00:59:20;29.10;;;14.45;;
70165;SDS011;57541;47.408;18.822;2023-03-01T00:59:52;24.13;;;14.18;;
70165;SDS011;57541;47.408;18.822;2023-03-01T01:00:24;26.48;;;14.70;;
70165;SDS011;57541;47.408;18.822;2023-03-01T01:00:59;28.45;;;14.77;;
70165;SDS011;57541;47.408;18.822;2023-03-01T01:01:31;26.50;;;14.82;;
70165;SDS011;57541;47.408;18.822;2023-03-01T01:02:03;26.80;;;15.00;;
70165;SDS011;57541;47.408;18.822;2023-03-01T01:02:35;27.58;;;14.60;;
70165;SDS011;57541;47.408;18.822;2023-03-01T01:03:07;27.75;;;15.32;;
70165;SDS011;57541;47.408;18.822;2023-03-01T01:03:38;28.52;;;14.88;;
70165;SDS011;57541;47.408;18.822;2023-03-01T01:04:11;27.70;;;15.63;;
70165;SDS011;57541;47.408;18.822;2023-03-01T01:04:45;25.45;;;13.95;;
70165;SDS011;57541;47.408;18.822;2023-03-01T01:05:17;24.33;;;14.02;;
70165;SDS011;57541;47.408;18.822;2023-03-01T01:05:52;25.92;;;14.35;;
70165;SDS011;57541;47.408;18.822;2023-03-01T01:06:25;25.90;;;14.25;;
70165;SDS011;57541;47.408;18.822;2023-03-01T01:07:03;26.90;;;14.38;;
70165;SDS011;57541;47.408;18.822;2023-03-01T01:07:34;27.80;;;14.85;;
70165;SDS011;57541;47.408;18.822;2023-03-01T01:08:06;26.45;;;15.40;;
70165;SDS011;57541;47.408;18.822;2023-03-01T01:08:38;29.88;;;16.25;;
70165;SDS011;57541;47.408;18.822;2023-03-01T01:09:11;26.75;;;15.02;;
70165;SDS011;57541;47.408;18.822;2023-03-01T01:09:49;27.60;;;14.50;;
70165;SDS011;57541;47.408;18.822;2023-03-01T01:10:21;27.42;;;15.18;;
70165;SDS011;57541;47.408;18.822;2023-03-01T01:10:53;25.25;;;14.73;;
70165;SDS011;57541;47.408;18.822;2023-03-01T01:11:25;26.27;;;14.35;;
70165;SDS011;57541;47.408;18.822;2023-03-01T01:11:58;28.52;;;15.52;;
70165;SDS011;57541;47.408;18.822;2023-03-01T01:12:30;26.50;;;15.55;;
70165;SDS011;57541;47.408;18.822;2023-03-01T01:13:03;25.00;;;15.07;;
70165;SDS011;57541;47.408;18.822;2023-03-01T01:13:34;30.33;;;16.30;;
70165;SDS011;57541;47.408;18.822;2023-03-01T01:14:06;27.05;;;15.52;;
70165;SDS011;57541;47.408;18.822;2023-03-01T01:14:38;28.63;;;15.75;;
70165;SDS011;57541;47.408;18.822;2023-03-01T01:15:09;29.58;;;15.85;;
70165;SDS011;57541;47.408;18.822;2023-03-01T01:15:44;26.65;;;14.80;;
70165;SDS011;57541;47.408;18.822;2023-03-01T01:16:16;29.80;;;16.30;;
70165;SDS011;57541;47.408;18.822;2023-03-01T01:16:49;27.95;;;15.05;;
70165;SDS011;57541;47.408;18.822;2023-03-01T01:17:21;28.38;;;16.05;;
70165;SDS011;57541;47.408;18.822;2023-03-01T01:17:52;28.77;;;16.23;;
70165;SDS011;57541;47.408;18.822;2023-03-01T01:18:24;27.98;;;16.48;;
70165;SDS011;57541;47.408;18.822;2023-03-01T01:18:56;32.08;;;16.92;;
70165;SDS011;57541;47.408;18.822;2023-03-01T01:19:28;27.98;;;15.45;;
70165;SDS011;57541;47.408;18.822;2023-03-01T01:20:00;29.17;;;16.08;;
70165;SDS011;57541;47.408;18.822;2023-03-01T01:20:32;27.45;;;16.33;;
70165;SDS011;57541;47.408;18.822;2023-03-01T01:21:08;26.90;;;16.02;;
70165;SDS011;57541;47.408;18.822;2023-03-01T01:21:41;27.20;;;14.98;;
70165;SDS011;57541;47.408;18.822;2023-03-01T01:22:14;29.05;;;14.82;;
70165;SDS011;57541;47.408;18.822;2023-03-01T01:22:46;29.75;;;16.30;;
70165;SDS011;57541;47.408;18.822;2023-03-01T01:23:17;28.02;;;15.10;;
70165;SDS011;57541;47.408;18.822;2023-03-01T01:23:49;30.33;;;15.70;;
70165;SDS011;57541;47.408;18.822;2023-03-01T01:24:22;28.20;;;14.50;;
70165;SDS011;57541;47.408;18.822;2023-03-01T01:24:53;28.42;;;15.27;;
70165;SDS011;57541;47.408;18.822;2023-03-01T01:25:25;31.83;;;16.17;;
70165;SDS011;57541;47.408;18.822;2023-03-01T01:25:57;31.73;;;16.33;;
70165;SDS011;57541;47.408;18.822;2023-03-01T01:26:29;30.05;;;16.27;;
70165;SDS011;57541;47.408;18.822;2023-03-01T01:27:03;32.88;;;16.70;;
70165;SDS011;57541;47.408;18.822;2023-03-01T01:27:35;30.67;;;16.58;;
70165;SDS011;57541;47.408;18.822;2023-03-01T01:28:07;31.40;;;16.50;;
70165;SDS011;57541;47.408;18.822;2023-03-01T01:28:38;29.30;;;16.30;;
70165;SDS011;57541;47.408;18.822;2023-03-01T01:29:10;32.90;;;16.67;;
70165;SDS011;57541;47.408;18.822;2023-03-01T01:29:42;31.92;;;16.13;;
70165;SDS011;57541;47.408;18.822;2023-03-01T01:30:14;30.20;;;16.85;;
70165;SDS011;57541;47.408;18.822;2023-03-01T01:30:46;29.45;;;16.15;;
70165;SDS011;57541;47.408;18.822;2023-03-01T01:31:17;27.73;;;15.75;;
70165;SDS011;57541;47.408;18.822;2023-03-01T01:31:50;30.63;;;16.40;;
70165;SDS011;57541;47.408;18.822;2023-03-01T01:32:22;25.67;;;14.98;;
70165;SDS011;57541;47.408;18.822;2023-03-01T01:32:56;25.73;;;14.80;;
70165;SDS011;57541;47.408;18.822;2023-03-01T01:33:28;27.60;;;15.25;;
70165;SDS011;57541;47.408;18.822;2023-03-01T01:34:00;27.23;;;15.52;;
70165;SDS011;57541;47.408;18.822;2023-03-01T01:34:33;30.90;;;16.63;;
70165;SDS011;57541;47.408;18.822;2023-03-01T01:35:05;32.42;;;17.13;;
70165;SDS011;57541;47.408;18.822;2023-03-01T01:35:37;30.70;;;16.38;;
70165;SDS011;57541;47.408;18.822;2023-03-01T01:36:09;33.53;;;17.92;;
70165;SDS011;57541;47.408;18.822;2023-03-01T01:36:40;31.10;;;17.40;;
70165;SDS011;57541;47.408;18.822;2023-03-01T01:37:12;31.98;;;16.88;;
70165;SDS011;57541;47.408;18.822;2023-03-01T01:37:44;28.65;;;16.00;;
70165;SDS011;57541;47.408;18.822;2023-03-01T01:38:15;28.13;;;16.38;;
70165;SDS011;57541;47.408;18.822;2023-03-01T01:38:47;30.42;;;16.58;;
70165;SDS011;57541;47.408;18.822;2023-03-01T01:39:19;27.92;;;15.35;;
70165;SDS011;57541;47.408;18.822;2023-03-01T01:39:54;29.30;;;16.67;;
70165;SDS011;57541;47.408;18.822;2023-03-01T01:40:25;30.23;;;16.55;;
70165;SDS011;57541;47.408;18.822;2023-03-01T01:40:57;27.45;;;15.82;;
70165;SDS011;57541;47.408;18.822;2023-03-01T01:41:29;29.98;;;15.75;;
70165;SDS011;57541;47.408;18.822;2023-03-01T01:42:01;29.83;;;16.20;;
70165;SDS011;57541;47.408;18.822;2023-03-01T01:42:33;29.70;;;17.10;;
70165;SDS011;57541;47.408;18.822;2023-03-01T01:43:07;31.90;;;17.25;;
70165;SDS011;57541;47.408;18.822;2023-03-01T01:43:48;30.88;;;16.33;;
70165;SDS011;57541;47.408;18.822;2023-03-01T01:46:05;28.73;;;15.15;;
70165;SDS011;57541;47.408;18.822;2023-03-01T01:46:51;28.85;;;15.82;;
70165;SDS011;57541;47.408;18.822;2023-03-01T01:47:26;29.63;;;16.20;;
70165;SDS011;57541;47.408;18.822;2023-03-01T01:48:00;28.02;;;15.35;;
70165;SDS011;57541;47.408;18.822;2023-03-01T01:48:49;28.23;;;15.05;;
70165;SDS011;57541;47.408;18.822;2023-03-01T01:50:08;29.33;;;15.10;;
70165;SDS011;57541;47.408;18.822;2023-03-01T01:50:51;26.55;;;14.57;;
70165;SDS011;57541;47.408;18.822;2023-03-01T01:51:28;26.98;;;14.20;;
70165;SDS011;57541;47.408;18.822;2023-03-01T01:52:52;28.33;;;14.38;;
70165;SDS011;57541;47.408;18.822;2023-03-01T01:53:12;25.20;;;13.35;;
70165;SDS011;57541;47.408;18.822;2023-03-01T01:53:48;26.30;;;14.23;;
70165;SDS011;57541;47.408;18.822;2023-03-01T01:54:36;27.55;;;15.10;;
70165;SDS011;57541;47.408;18.822;2023-03-01T01:55:14;26.00;;;13.13;;
70165;SDS011;57541;47.408;18.822;2023-03-01T01:55:53;26.58;;;14.65;;
70165;SDS011;57541;47.408;18.822;2023-03-01T01:56:29;26.65;;;12.88;;
70165;SDS011;57541;47.408;18.822;2023-03-01T01:57:03;26.25;;;13.25;;
70165;SDS011;57541;47.408;18.822;2023-03-01T01:57:45;24.33;;;12.13;;
70165;SDS011;57541;47.408;18.822;2023-03-01T01:58:19;22.58;;;11.80;;
70165;SDS011;57541;47.408;18.822;2023-03-01T01:58:52;19.00;;;10.52;;
70165;SDS011;57541;47.408;18.822;2023-03-01T01:59:24;23.52;;;11.73;;
70165;SDS011;57541;47.408;18.822;2023-03-01T01:59:57;24.70;;;11.80;;
70165;SDS011;57541;47.408;18.822;2023-03-01T02:00:32;23.00;;;12.20;;
70165;SDS011;57541;47.408;18.822;2023-03-01T02:01:04;22.73;;;11.35;;
70165;SDS011;57541;47.408;18.822;2023-03-01T02:01:36;20.25;;;10.10;;
70165;SDS011;57541;47.408;18.822;2023-03-01T02:02:08;17.38;;;9.90;;
70165;SDS011;57541;47.408;18.822;2023-03-01T02:02:40;20.17;;;10.50;;
70165;SDS011;57541;47.408;18.822;2023-03-01T02:03:17;22.42;;;10.65;;
70165;SDS011;57541;47.408;18.822;2023-03-01T02:03:55;18.10;;;9.95;;
70165;SDS011;57541;47.408;18.822;2023-03-01T02:04:27;18.92;;;10.65;;
70165;SDS011;57541;47.408;18.822;2023-03-01T02:05:02;21.40;;;11.05;;
70165;SDS011;57541;47.408;18.822;2023-03-01T02:06:39;24.63;;;11.98;;
70165;SDS011;57541;47.408;18.822;2023-03-01T02:07:24;28.73;;;12.25;;
70165;SDS011;57541;47.408;18.822;2023-03-01T02:07:57;26.27;;;13.45;;
70165;SDS011;57541;47.408;18.822;2023-03-01T02:08:30;29.35;;;13.80;;
70165;SDS011;57541;47.408;18.822;2023-03-01T02:09:06;26.92;;;13.18;;
70165;SDS011;57541;47.408;18.822;2023-03-01T02:09:48;27.02;;;13.63;;
70165;SDS011;57541;47.408;18.822;2023-03-01T02:10:22;27.35;;;14.18;;
70165;SDS011;57541;47.408;18.822;2023-03-01T02:10:55;25.80;;;13.75;;
70165;SDS011;57541;47.408;18.822;2023-03-01T02:11:29;27.38;;;14.18;;
70165;SDS011;57541;47.408;18.822;2023-03-01T02:12:02;29.42;;;14.45;;
70165;SDS011;57541;47.408;18.822;2023-03-01T02:12:35;27.67;;;15.98;;
70165;SDS011;57541;47.408;18.822;2023-03-01T02:13:09;25.45;;;14.43;;
70165;SDS011;57541;47.408;18.822;2023-03-01T02:13:41;27.15;;;14.25;;
70165;SDS011;57541;47.408;18.822;2023-03-01T02:14:14;27.25;;;14.82;;
70165;SDS011;57541;47.408;18.822;2023-03-01T02:14:47;30.67;;;15.85;;
70165;SDS011;57541;47.408;18.822;2023-03-01T02:15:19;27.75;;;14.68;;
70165;SDS011;57541;47.408;18.822;2023-03-01T02:15:50;29.30;;;15.10;;
70165;SDS011;57541;47.408;18.822;2023-03-01T02:16:22;25.70;;;15.15;;
70165;SDS011;57541;47.408;18.822;2023-03-01T02:16:54;28.00;;;15.80;;
70165;SDS011;57541;47.408;18.822;2023-03-01T02:17:26;25.27;;;14.65;;
70165;SDS011;57541;47.408;18.822;2023-03-01T02:17:58;29.20;;;15.98;;
70165;SDS011;57541;47.408;18.822;2023-03-01T02:18:30;27.85;;;15.18;;
70165;SDS011;57541;47.408;18.822;2023-03-01T02:19:01;26.33;;;14.68;;
70165;SDS011;57541;47.408;18.822;2023-03-01T02:20:35;29.65;;;15.45;;
70165;SDS011;57541;47.408;18.822;2023-03-01T02:21:30;27.52;;;14.13;;
70165;SDS011;57541;47.408;18.822;2023-03-01T02:22:17;27.67;;;14.35;;
70165;SDS011;57541;47.408;18.822;2023-03-01T02:22:50;29.30;;;15.20;;
70165;SDS011;57541;47.408;18.822;2023-03-01T02:23:22;26.77;;;14.23;;
70165;SDS011;57541;47.408;18.822;2023-03-01T02:23:54;28.52;;;15.07;;
70165;SDS011;57541;47.408;18.822;2023-03-01T02:24:42;26.13;;;14.45;;
70165;SDS011;57541;47.408;18.822;2023-03-01T02:25:41;26.58;;;13.77;;
70165;SDS011;57541;47.408;18.822;2023-03-01T02:26:42;26.45;;;13.98;;
70165;SDS011;57541;47.408;18.822;2023-03-01T02:27:19;29.38;;;14.32;;
70165;SDS011;57541;47.408;18.822;2023-03-01T02:28:46;25.10;;;13.65;;
70165;SDS011;57541;47.408;18.822;2023-03-01T02:29:19;27.35;;;14.43;;
70165;SDS011;57541;47.408;18.822;2023-03-01T02:29:51;28.38;;;14.20;;
70165;SDS011;57541;47.408;18.822;2023-03-01T02:30:23;24.52;;;14.05;;
70165;SDS011;57541;47.408;18.822;2023-03-01T02:30:56;28.45;;;13.85;;
70165;SDS011;57541;47.408;18.822;2023-03-01T02:31:47;29.15;;;14.63;;
70165;SDS011;57541;47.408;18.822;2023-03-01T02:32:21;29.73;;;14.30;;
70165;SDS011;57541;47.408;18.822;2023-03-01T02:32:56;28.30;;;13.88;;
70165;SDS011;57541;47.408;18.822;2023-03-01T02:33:35;27.50;;;13.95;;
70165;SDS011;57541;47.408;18.822;2023-03-01T02:34:10;27.25;;;13.82;;
70165;SDS011;57541;47.408;18.822;2023-03-01T02:34:44;25.20;;;13.75;;
70165;SDS011;57541;47.408;18.822;2023-03-01T02:35:16;26.05;;;14.23;;
70165;SDS011;57541;47.408;18.822;2023-03-01T02:35:49;26.08;;;13.85;;
70165;SDS011;57541;47.408;18.822;2023-03-01T02:36:22;25.60;;;13.10;;
70165;SDS011;57541;47.408;18.822;2023-03-01T02:37:01;26.45;;;14.52;;
70165;SDS011;57541;47.408;18.822;2023-03-01T02:37:39;24.52;;;13.27;;
70165;SDS011;57541;47.408;18.822;2023-03-01T02:38:13;19.48;;;10.68;;
70165;SDS011;57541;47.408;18.822;2023-03-01T02:38:46;23.98;;;12.82;;
70165;SDS011;57541;47.408;18.822;2023-03-01T02:39:23;22.13;;;12.38;;
70165;SDS011;57541;47.408;18.822;2023-03-01T02:39:59;20.70;;;10.82;;
70165;SDS011;57541;47.408;18.822;2023-03-01T02:40:37;18.73;;;10.35;;
70165;SDS011;57541;47.408;18.822;2023-03-01T02:41:10;17.33;;;9.88;;
70165;SDS011;57541;47.408;18.822;2023-03-01T02:41:49;18.55;;;9.95;;
70165;SDS011;57541;47.408;18.822;2023-03-01T02:42:23;21.63;;;11.13;;
70165;SDS011;57541;47.408;18.822;2023-03-01T02:42:59;22.88;;;11.38;;
70165;SDS011;57541;47.408;18.822;2023-03-01T02:43:31;23.92;;;11.70;;
70165;SDS011;57541;47.408;18.822;2023-03-01T02:44:04;22.98;;;13.48;;
70165;SDS011;57541;47.408;18.822;2023-03-01T02:44:36;24.40;;;12.77;;
70165;SDS011;57541;47.408;18.822;2023-03-01T02:45:08;25.88;;;12.80;;
70165;SDS011;57541;47.408;18.822;2023-03-01T02:45:51;26.83;;;12.32;;
70165;SDS011;57541;47.408;18.822;2023-03-01T02:46:24;28.33;;;13.45;;
70165;SDS011;57541;47.408;18.822;2023-03-01T02:46:57;24.63;;;11.73;;
70165;SDS011;57541;47.408;18.822;2023-03-01T02:47:33;24.27;;;11.68;;
70165;SDS011;57541;47.408;18.822;2023-03-01T02:48:05;22.10;;;11.23;;
70165;SDS011;57541;47.408;18.822;2023-03-01T02:48:40;20.90;;;10.45;;
70165;SDS011;57541;47.408;18.822;2023-03-01T02:49:30;22.17;;;10.48;;
70165;SDS011;57541;47.408;18.822;2023-03-01T02:50:10;23.23;;;10.20;;
70165;SDS011;57541;47.408;18.822;2023-03-01T02:53:27;18.90;;;9.57;;
70165;SDS011;57541;47.408;18.822;2023-03-01T02:55:09;20.60;;;10.63;;
70165;SDS011;57541;47.408;18.822;2023-03-01T02:55:44;22.85;;;11.00;;
70165;SDS011;57541;47.408;18.822;2023-03-01T02:56:16;27.73;;;11.48;;
70165;SDS011;57541;47.408;18.822;2023-03-01T02:56:47;21.65;;;11.45;;
70165;SDS011;57541;47.408;18.822;2023-03-01T02:57:20;21.95;;;11.43;;
70165;SDS011;57541;47.408;18.822;2023-03-01T02:57:53;21.70;;;12.00;;
70165;SDS011;57541;47.408;18.822;2023-03-01T02:58:27;22.27;;;12.10;;
70165;SDS011;57541;47.408;18.822;2023-03-01T02:58:58;22.13;;;11.85;;
70165;SDS011;57541;47.408;18.822;2023-03-01T02:59:32;23.20;;;11.90;;
70165;SDS011;57541;47.408;18.822;2023-03-01T03:00:13;25.90;;;12.25;;
70165;SDS011;57541;47.408;18.822;2023-03-01T03:00:50;23.58;;;12.40;;
70165;SDS011;57541;47.408;18.822;2023-03-01T03:01:22;24.88;;;13.48;;
70165;SDS011;57541;47.408;18.822;2023-03-01T03:01:54;23.85;;;11.85;;
70165;SDS011;57541;47.408;18.822;2023-03-01T03:02:26;24.67;;;12.80;;
70165;SDS011;57541;47.408;18.822;2023-03-01T03:03:07;23.00;;;12.80;;
70165;SDS011;57541;47.408;18.822;2023-03-01T03:03:39;22.08;;;12.35;;
70165;SDS011;57541;47.408;18.822;2023-03-01T03:04:12;22.77;;;11.90;;
70165;SDS011;57541;47.408;18.822;2023-03-01T03:04:49;23.92;;;11.70;;
70165;SDS011;57541;47.408;18.822;2023-03-01T03:05:22;25.17;;;12.77;;
70165;SDS011;57541;47.408;18.822;2023-03-01T03:05:58;24.65;;;12.00;;
70165;SDS011;57541;47.408;18.822;2023-03-01T03:06:29;22.80;;;11.82;;
70165;SDS011;57541;47.408;18.822;2023-03-01T03:07:02;20.05;;;11.70;;
70165;SDS011;57541;47.408;18.822;2023-03-01T03:07:37;23.75;;;11.55;;
70165;SDS011;57541;47.408;18.822;2023-03-01T03:08:10;22.95;;;12.65;;
70165;SDS011;57541;47.408;18.822;2023-03-01T03:08:42;20.15;;;11.77;;
70165;SDS011;57541;47.408;18.822;2023-03-01T03:09:15;20.38;;;10.90;;
70165;SDS011;57541;47.408;18.822;2023-03-01T03:09:47;18.92;;;10.45;;
70165;SDS011;57541;47.408;18.822;2023-03-01T03:10:20;20.10;;;11.00;;
70165;SDS011;57541;47.408;18.822;2023-03-01T03:10:55;18.08;;;10.82;;
70165;SDS011;57541;47.408;18.822;2023-03-01T03:11:27;21.20;;;11.18;;
70165;SDS011;57541;47.408;18.822;2023-03-01T03:11:59;19.20;;;11.15;;
70165;SDS011;57541;47.408;18.822;2023-03-01T03:12:30;19.60;;;10.23;;
70165;SDS011;57541;47.408;18.822;2023-03-01T03:13:04;20.10;;;10.02;;
70165;SDS011;57541;47.408;18.822;2023-03-01T03:13:39;19.30;;;10.02;;
70165;SDS011;57541;47.408;18.822;2023-03-01T03:14:19;19.00;;;10.02;;
70165;SDS011;57541;47.408;18.822;2023-03-01T03:14:51;19.92;;;10.55;;
70165;SDS011;57541;47.408;18.822;2023-03-01T03:15:22;20.67;;;11.43;;
70165;SDS011;57541;47.408;18.822;2023-03-01T03:15:55;18.40;;;9.77;;
70165;SDS011;57541;47.408;18.822;2023-03-01T03:16:27;19.15;;;10.57;;
70165;SDS011;57541;47.408;18.822;2023-03-01T03:17:01;19.60;;;10.02;;
70165;SDS011;57541;47.408;18.822;2023-03-01T03:17:38;18.63;;;10.57;;
70165;SDS011;57541;47.408;18.822;2023-03-01T03:18:13;19.70;;;10.45;;
70165;SDS011;57541;47.408;18.822;2023-03-01T03:18:46;20.50;;;9.38;;
70165;SDS011;57541;47.408;18.822;2023-03-01T03:19:19;20.58;;;11.13;;
70165;SDS011;57541;47.408;18.822;2023-03-01T03:19:50;22.27;;;10.60;;
70165;SDS011;57541;47.408;18.822;2023-03-01T03:20:23;18.63;;;10.25;;
70165;SDS011;57541;47.408;18.822;2023-03-01T03:20:57;20.48;;;10.45;;
70165;SDS011;57541;47.408;18.822;2023-03-01T03:21:29;20.40;;;10.93;;
70165;SDS011;57541;47.408;18.822;2023-03-01T03:22:00;19.92;;;10.20;;
70165;SDS011;57541;47.408;18.822;2023-03-01T03:22:32;19.73;;;10.30;;
70165;SDS011;57541;47.408;18.822;2023-03-01T03:23:05;20.75;;;10.73;;
70165;SDS011;57541;47.408;18.822;2023-03-01T03:23:36;17.77;;;9.80;;
70165;SDS011;57541;47.408;18.822;2023-03-01T03:24:08;19.27;;;10.30;;